createdAt,value
2023-05-12T00:01:07.677Z,34.07
2023-05-12T00:08:09.254Z,34.18
2023-05-12T00:15:10.951Z,34.87
2023-05-12T00:22:12.631Z,34.47
2023-05-12T00:29:14.223Z,34.53
2023-05-12T00:36:15.842Z,34.78
2023-05-12T00:43:17.527Z,34.86
2023-05-12T00:50:19.429Z,35.26
2023-05-12T00:57:22.628Z,34.96
2023-05-12T01:04:24.574Z,35.28
2023-05-12T01:11:26.898Z,35.18
2023-05-12T01:18:28.676Z,35.54
2023-05-12T01:25:31.954Z,35.72
2023-05-12T01:32:35.616Z,35.58
2023-05-12T01:39:38.882Z,35.64
2023-05-12T01:46:41.623Z,35.78
2023-05-12T01:53:43.451Z,36.05
2023-05-12T02:00:45.923Z,36.15
2023-05-12T02:07:52.207Z,36.52
2023-05-12T02:14:54.233Z,36.79
2023-05-12T02:21:56.129Z,36.51
2023-05-12T02:28:57.816Z,36.95
2023-05-12T02:35:59.568Z,37.26
2023-05-12T02:43:01.685Z,37.21
2023-05-12T02:50:04.048Z,37.38
2023-05-12T02:57:07.081Z,37.68
2023-05-12T03:04:08.823Z,38.05
2023-05-12T03:11:10.624Z,38.15
2023-05-12T03:18:12.534Z,38.41
2023-05-12T03:25:14.257Z,38.48
2023-05-12T03:32:16.690Z,38.76
2023-05-12T03:39:18.615Z,38.62
2023-05-12T03:46:20.942Z,38.84
2023-05-12T03:53:22.748Z,39.20
2023-05-12T04:00:25.528Z,39.05
2023-05-12T04:07:27.737Z,39.18
2023-05-12T04:14:41.607Z,39.13
2023-05-12T04:21:44.006Z,39.33
2023-05-12T04:28:45.712Z,39.90
2023-05-12T04:35:48.890Z,40.13
2023-05-12T04:42:51.127Z,40.02
2023-05-12T04:49:52.921Z,39.68
2023-05-12T04:56:54.552Z,40.02
2023-05-12T05:03:57.126Z,39.70
2023-05-12T05:10:59.018Z,39.79
2023-05-12T05:18:02.528Z,39.58
2023-05-12T05:25:05.269Z,39.48
2023-05-12T05:32:08.400Z,39.49
2023-05-12T05:39:11.177Z,39.36
2023-05-12T05:46:12.852Z,39.14
2023-05-12T05:53:15.599Z,38.49
2023-05-12T06:00:18.650Z,38.37
2023-05-12T06:07:24.358Z,44.11
2023-05-12T06:14:26.000Z,44.22
2023-05-12T06:21:30.175Z,42.98
2023-05-12T06:28:31.744Z,42.29
2023-05-12T06:35:33.547Z,42.44
2023-05-12T06:42:35.384Z,41.81
2023-05-12T06:49:43.618Z,40.91
2023-05-12T06:56:49.879Z,43.09
2023-05-12T07:03:51.663Z,40.55
2023-05-12T07:10:53.479Z,39.71
2023-05-12T07:17:55.853Z,40.20
2023-05-12T07:24:57.644Z,43.63
2023-05-12T07:31:59.294Z,39.08
2023-05-12T07:39:00.882Z,40.89
2023-05-12T07:46:02.903Z,40.31
2023-05-12T07:53:04.729Z,38.80
2023-05-12T08:00:07.206Z,39.53
2023-05-12T08:07:14.749Z,34.75
2023-05-12T08:14:18.352Z,33.35
2023-05-12T08:21:19.948Z,32.87
2023-05-12T08:28:21.930Z,29.00
2023-05-12T08:35:25.222Z,28.53
2023-05-12T08:42:43.044Z,27.58
2023-05-12T08:49:44.982Z,26.42
2023-05-12T09:03:52.757Z,25.59
2023-05-12T09:10:57.878Z,24.13
2023-05-12T09:17:59.687Z,22.62
2023-05-12T09:25:01.466Z,22.67
2023-05-12T09:32:04.034Z,21.60
2023-05-12T09:39:07.091Z,20.61
2023-05-12T09:46:09.857Z,20.87
2023-05-12T09:53:11.776Z,19.89
2023-05-12T10:00:31.139Z,20.08
2023-05-12T10:07:36.334Z,19.58
2023-05-12T10:14:38.105Z,18.98
2023-05-12T10:21:40.045Z,18.26
2023-05-12T10:28:42.879Z,17.98
2023-05-12T10:35:46.196Z,18.66
2023-05-12T10:42:49.658Z,17.85
2023-05-12T10:49:55.579Z,17.87
2023-05-12T10:57:02.173Z,17.79
2023-05-12T11:04:17.125Z,17.36
2023-05-12T11:11:20.073Z,16.81
2023-05-12T11:18:22.363Z,16.94
2023-05-12T11:25:26.644Z,16.00
2023-05-12T11:32:29.450Z,16.46
2023-05-12T11:39:32.358Z,15.60
2023-05-12T11:46:34.404Z,15.88
2023-05-12T11:53:40.266Z,16.08
2023-05-12T12:00:42.110Z,15.33
2023-05-12T12:07:43.694Z,15.61
2023-05-12T12:14:45.382Z,15.02
2023-05-12T12:21:46.990Z,14.95
2023-05-12T12:28:48.902Z,15.57
2023-05-12T12:35:50.649Z,14.79
2023-05-12T12:42:52.311Z,14.45
2023-05-12T12:49:53.909Z,14.71
2023-05-12T12:56:55.924Z,14.61
2023-05-12T13:03:57.614Z,14.21
2023-05-12T13:11:00.270Z,13.66
2023-05-12T13:18:01.908Z,14.77
2023-05-12T13:25:07.371Z,13.70
2023-05-12T13:32:08.998Z,13.75
2023-05-12T13:39:10.786Z,13.64
2023-05-12T13:46:12.480Z,13.45
2023-05-12T13:53:14.133Z,13.46
2023-05-12T14:00:17.537Z,13.64
2023-05-12T14:07:19.281Z,14.24
2023-05-12T14:14:20.987Z,14.30
2023-05-12T14:21:22.585Z,15.03
2023-05-12T14:28:24.377Z,14.80
2023-05-12T14:35:27.683Z,14.68
2023-05-12T14:42:30.349Z,15.08
2023-05-12T14:49:31.999Z,14.58
2023-05-12T14:56:34.781Z,14.90
2023-05-12T15:03:36.465Z,16.41
2023-05-12T15:10:38.174Z,15.81
2023-05-12T15:17:39.824Z,16.00
2023-05-12T15:24:42.731Z,16.28
2023-05-12T15:31:44.595Z,17.00
2023-05-12T15:38:47.305Z,16.95
2023-05-12T15:45:48.893Z,17.23
2023-05-12T15:52:50.713Z,18.11
2023-05-12T15:59:59.255Z,18.07
2023-05-12T16:07:00.896Z,18.42
2023-05-12T16:14:02.651Z,18.60
2023-05-12T16:21:05.238Z,18.18
2023-05-12T16:28:07.033Z,18.22
2023-05-12T16:35:09.025Z,19.15
2023-05-12T16:42:10.691Z,19.27
2023-05-12T16:49:12.493Z,19.53
2023-05-12T16:56:14.136Z,19.33
2023-05-12T17:03:15.885Z,19.89
2023-05-12T17:10:17.671Z,19.94
2023-05-12T17:17:19.406Z,19.90
2023-05-12T17:24:21.116Z,20.30
2023-05-12T17:31:22.933Z,20.38
2023-05-12T17:38:24.754Z,21.19
2023-05-12T17:45:27.579Z,20.83
2023-05-12T17:52:29.328Z,21.20
2023-05-12T17:59:31.260Z,21.34
2023-05-12T18:06:33.200Z,21.71
2023-05-12T18:13:34.963Z,21.83
2023-05-12T18:20:36.698Z,21.86
2023-05-12T18:27:38.462Z,22.36
2023-05-12T18:34:43.856Z,22.41
2023-05-12T18:41:45.601Z,22.90
2023-05-12T18:48:47.208Z,22.57
2023-05-12T18:55:49.753Z,22.99
2023-05-12T19:02:52.315Z,23.16
2023-05-12T19:09:53.937Z,23.45
2023-05-12T19:16:56.146Z,23.86
2023-05-12T19:23:57.944Z,24.25
2023-05-12T19:30:59.523Z,24.26
2023-05-12T19:38:01.131Z,24.77
2023-05-12T19:45:03.013Z,25.07
2023-05-12T19:52:04.914Z,25.04
2023-05-12T19:59:06.875Z,25.55
2023-05-12T20:06:08.525Z,25.57
2023-05-12T20:13:10.189Z,26.03
2023-05-12T20:20:12.129Z,26.15
2023-05-12T20:27:13.977Z,26.35
2023-05-12T20:34:15.666Z,26.81
2023-05-12T20:41:17.284Z,27.40
2023-05-12T20:48:19.237Z,27.43
2023-05-12T20:55:21.144Z,27.61
2023-05-12T21:02:26.846Z,28.07
2023-05-12T21:09:28.660Z,28.38
2023-05-12T21:16:30.597Z,28.29
2023-05-12T21:23:32.507Z,28.81
2023-05-12T21:30:36.169Z,29.00
2023-05-12T21:37:37.933Z,29.05
2023-05-12T21:44:39.571Z,29.62
2023-05-12T21:51:41.944Z,29.58
2023-05-12T21:58:43.553Z,29.71
2023-05-12T22:05:45.230Z,30.18
2023-05-12T22:12:46.971Z,30.29
2023-05-12T22:19:49.064Z,30.46
2023-05-12T22:26:50.686Z,30.58
2023-05-12T22:33:52.274Z,30.57
2023-05-12T22:40:54.053Z,30.82
2023-05-12T22:47:55.683Z,31.20
2023-05-12T22:54:57.255Z,31.22
2023-05-12T23:01:58.914Z,31.24
2023-05-12T23:09:00.955Z,31.24
2023-05-12T23:16:02.517Z,31.08
2023-05-12T23:23:04.109Z,31.50
2023-05-12T23:30:06.524Z,31.50
2023-05-12T23:37:08.332Z,32.09
2023-05-12T23:44:10.078Z,31.87
2023-05-12T23:51:11.754Z,32.15
2023-05-12T23:58:13.491Z,32.21
